createdAt,value
2022-09-30T00:01:12.739Z,85.6
2022-09-30T00:06:12.726Z,86
2022-09-30T00:12:02.237Z,84.9
2022-09-30T00:17:02.264Z,84.6
2022-09-30T00:22:02.232Z,84.4
2022-09-30T00:27:02.457Z,82.2
2022-09-30T00:32:12.570Z,84.8
2022-09-30T00:37:12.718Z,83.6
2022-09-30T00:43:02.236Z,85
2022-09-30T00:48:02.425Z,85
2022-09-30T00:53:12.721Z,85.1
2022-09-30T00:59:02.277Z,86
2022-09-30T01:04:12.643Z,87.5
2022-09-30T01:10:02.232Z,86.6
2022-09-30T01:15:02.532Z,85.9
2022-09-30T01:20:12.754Z,85
2022-09-30T01:26:02.168Z,84
2022-09-30T01:31:02.271Z,84.6
2022-09-30T01:36:02.234Z,84.6
2022-09-30T01:41:02.507Z,84.3
2022-09-30T01:46:12.560Z,84.2
2022-09-30T01:51:12.745Z,85.2
2022-09-30T01:56:12.836Z,84.5
2022-09-30T02:02:02.322Z,84.9
2022-09-30T02:07:02.266Z,84.4
2022-09-30T02:12:12.535Z,84
2022-09-30T02:17:12.547Z,82.2
2022-09-30T02:23:02.320Z,82
2022-09-30T02:28:12.513Z,84.6
2022-09-30T02:34:02.227Z,85.3
2022-09-30T02:39:12.500Z,84.8
2022-09-30T02:44:12.516Z,84.2
2022-09-30T02:49:12.604Z,84.5
2022-09-30T02:55:02.244Z,85.1
2022-09-30T03:00:13.242Z,84.7
2022-09-30T03:06:02.432Z,85
2022-09-30T03:11:12.772Z,84.6
2022-09-30T03:17:02.195Z,84.8
2022-09-30T03:22:02.210Z,85.2
2022-09-30T03:27:02.360Z,84.6
2022-09-30T03:32:02.209Z,84.9
2022-09-30T03:37:04.266Z,83.1
2022-09-30T03:42:12.729Z,84.4
2022-09-30T03:47:12.715Z,83.7
2022-09-30T03:53:02.236Z,83.2
2022-09-30T03:58:12.723Z,85.2
2022-09-30T04:04:02.146Z,83.2
2022-09-30T04:09:02.251Z,83.5
2022-09-30T04:14:02.239Z,84.2
2022-09-30T04:19:02.207Z,83.6
2022-09-30T04:24:12.684Z,83.8
2022-09-30T04:29:12.739Z,84.2
2022-09-30T04:35:02.302Z,82.7
2022-09-30T04:40:12.684Z,83.8
2022-09-30T04:45:12.743Z,83.5
2022-09-30T04:51:02.259Z,84.3
2022-09-30T04:56:12.533Z,84.3
2022-09-30T05:01:12.813Z,85
2022-09-30T05:06:12.713Z,84.2
2022-09-30T05:12:02.181Z,85
2022-09-30T05:17:12.720Z,85.1
2022-09-30T05:23:02.246Z,84.8
2022-09-30T05:28:12.696Z,85
2022-09-30T05:34:02.218Z,84.9
2022-09-30T05:39:02.538Z,84.2
2022-09-30T05:44:12.740Z,84
2022-09-30T05:50:02.151Z,82.9
2022-09-30T05:55:02.375Z,83.7
2022-09-30T06:00:02.417Z,83.3
2022-09-30T06:05:12.696Z,83
2022-09-30T06:10:12.711Z,81.4
2022-09-30T06:15:12.695Z,82.2
2022-09-30T06:21:02.273Z,80.8
2022-09-30T06:26:12.671Z,80
2022-09-30T06:32:02.450Z,80.2
2022-09-30T06:37:02.401Z,77.7
2022-09-30T06:42:02.404Z,80
2022-09-30T06:47:23.499Z,78.8
2022-09-30T06:52:12.719Z,77.4
2022-09-30T06:58:02.140Z,79.7
2022-09-30T07:03:12.441Z,77.7
2022-09-30T07:08:12.694Z,78.5
2022-09-30T07:14:02.196Z,79.5
2022-09-30T07:19:02.368Z,78.1
2022-09-30T07:24:12.475Z,77.7
2022-09-30T07:29:12.463Z,78.6
2022-09-30T07:35:02.158Z,80.6
2022-09-30T07:40:02.477Z,79.8
2022-09-30T07:45:12.551Z,76.9
2022-09-30T07:50:12.753Z,76.2
2022-09-30T07:56:06.919Z,76.1
2022-09-30T08:01:12.673Z,75.2
2022-09-30T08:07:02.172Z,75.2
2022-09-30T08:12:02.273Z,75.1
2022-09-30T08:17:12.436Z,74.8
2022-09-30T08:22:12.563Z,74.5
2022-09-30T08:28:02.148Z,73.8
2022-09-30T08:33:02.180Z,72.5
2022-09-30T08:38:12.419Z,72.7
2022-09-30T08:43:12.486Z,71.3
2022-09-30T08:48:12.562Z,71.3
2022-09-30T08:54:02.156Z,69.4
2022-09-30T08:59:02.312Z,71.1
2022-09-30T09:04:02.200Z,70.1
2022-09-30T09:09:12.478Z,69.1
2022-09-30T09:15:02.289Z,69.6
2022-09-30T09:20:02.400Z,70
2022-09-30T09:25:12.511Z,68.9
2022-09-30T09:30:12.723Z,67.9
2022-09-30T09:35:12.678Z,65.3
2022-09-30T09:41:02.391Z,65.6
2022-09-30T09:46:12.798Z,64.2
2022-09-30T09:52:02.164Z,61.7
2022-09-30T09:57:02.380Z,61.5
2022-09-30T10:02:02.496Z,62.7
2022-09-30T10:07:02.377Z,61.7
2022-09-30T10:12:02.394Z,62.5
2022-09-30T10:17:12.733Z,59.4
2022-09-30T10:23:02.427Z,61.5
2022-09-30T10:28:12.759Z,59.5
2022-09-30T10:34:02.383Z,56.7
2022-09-30T10:39:12.651Z,56.6
2022-09-30T10:44:12.688Z,54.8
2022-09-30T10:50:02.212Z,55.3
2022-09-30T10:55:02.176Z,54.2
2022-09-30T11:00:12.636Z,54.3
2022-09-30T11:05:12.728Z,50.9
2022-09-30T11:11:05.886Z,51.8
2022-09-30T11:16:02.500Z,54
2022-09-30T11:21:12.779Z,50.4
2022-09-30T11:27:02.388Z,52.5
2022-09-30T11:32:12.534Z,52.2
2022-09-30T11:37:12.681Z,50.4
2022-09-30T11:42:12.684Z,50.5
2022-09-30T11:47:12.669Z,50.7
2022-09-30T11:52:12.715Z,49
2022-09-30T11:58:12.068Z,47.1
2022-09-30T12:03:05.642Z,49.7
2022-09-30T12:08:02.406Z,48.4
2022-09-30T12:13:12.570Z,48.1
2022-09-30T12:19:02.413Z,46.5
2022-09-30T12:24:12.495Z,43.7
2022-09-30T12:29:12.746Z,43.4
2022-09-30T12:35:02.477Z,44.9
2022-09-30T12:40:12.661Z,43.8
2022-09-30T12:45:12.714Z,46.9
2022-09-30T12:50:12.713Z,44.2
2022-09-30T12:56:02.436Z,45
2022-09-30T13:01:12.781Z,43.7
2022-09-30T13:06:21.941Z,44.2
2022-09-30T13:12:02.431Z,45.3
2022-09-30T13:17:12.739Z,43.6
2022-09-30T13:23:02.391Z,47.7
2022-09-30T13:28:12.749Z,47.8
2022-09-30T13:34:02.413Z,45.2
2022-09-30T13:39:12.703Z,45.3
2022-09-30T13:45:02.400Z,45.8
2022-09-30T13:50:12.749Z,45.5
2022-09-30T13:56:02.207Z,46.3
2022-09-30T14:01:02.452Z,46.3
2022-09-30T14:06:12.737Z,45.9
2022-09-30T14:12:02.404Z,44.8
2022-09-30T14:17:02.597Z,45.3
2022-09-30T14:22:12.547Z,45.6
2022-09-30T14:27:12.527Z,49.6
2022-09-30T14:32:12.859Z,45.5
2022-09-30T14:38:02.253Z,45.2
2022-09-30T14:43:02.220Z,45.9
2022-09-30T14:48:02.267Z,47.8
2022-09-30T14:53:12.534Z,50.3
2022-09-30T14:59:02.192Z,50.6
2022-09-30T15:04:12.589Z,51.4
2022-09-30T15:10:02.259Z,46.8
2022-09-30T15:15:12.497Z,49.3
2022-09-30T15:21:02.203Z,48.1
2022-09-30T15:26:02.337Z,47.5
2022-09-30T15:31:12.589Z,49.5
2022-09-30T15:37:02.283Z,52
2022-09-30T15:42:02.414Z,49.8
2022-09-30T15:47:02.393Z,50
2022-09-30T15:52:12.665Z,52.1
2022-09-30T15:57:12.733Z,54.7
2022-09-30T16:03:02.498Z,55.5
2022-09-30T16:08:02.414Z,56
2022-09-30T16:13:02.528Z,58.1
2022-09-30T16:18:12.668Z,57.1
2022-09-30T16:23:12.732Z,56.4
2022-09-30T16:29:04.266Z,58.8
2022-09-30T16:34:12.723Z,59.2
2022-09-30T16:40:02.427Z,59.7
2022-09-30T16:45:12.616Z,60.3
2022-09-30T16:51:02.425Z,61.3
2022-09-30T16:56:02.424Z,61.6
2022-09-30T17:01:12.788Z,63.5
2022-09-30T17:07:02.415Z,63.5
2022-09-30T17:12:02.463Z,63.8
2022-09-30T17:17:21.041Z,64.4
2022-09-30T17:23:06.944Z,64.7
2022-09-30T17:28:02.474Z,65.1
2022-09-30T17:33:12.742Z,64.3
2022-09-30T17:38:12.717Z,65.2
2022-09-30T17:44:02.529Z,65.6
2022-09-30T17:49:12.866Z,67
2022-09-30T17:55:02.242Z,67.2
2022-09-30T18:00:02.480Z,68.1
2022-09-30T18:05:12.882Z,68.6
2022-09-30T18:11:02.425Z,68.3
2022-09-30T18:16:12.539Z,68.8
2022-09-30T18:21:12.756Z,69.4
2022-09-30T18:27:02.443Z,68.2
2022-09-30T18:32:12.745Z,68.1
2022-09-30T18:38:02.483Z,67
2022-09-30T18:43:12.695Z,68.6
2022-09-30T18:48:12.726Z,70.3
2022-09-30T18:54:02.501Z,71.4
2022-09-30T18:59:12.736Z,68.7
2022-09-30T19:05:02.457Z,69.4
2022-09-30T19:10:12.740Z,68.7
2022-09-30T19:16:02.554Z,67.9
2022-09-30T19:21:12.722Z,69.9
2022-09-30T19:27:02.421Z,69.7
2022-09-30T19:32:02.503Z,68
2022-09-30T19:37:25.420Z,68.5
2022-09-30T19:42:12.769Z,68.9
2022-09-30T19:48:02.224Z,68.4
2022-09-30T19:53:02.413Z,69.9
2022-09-30T19:58:02.438Z,67.8
2022-09-30T20:03:02.434Z,67.1
2022-09-30T20:08:12.725Z,67.7
2022-09-30T20:13:12.780Z,67.8
2022-09-30T20:19:02.441Z,68.5
2022-09-30T20:24:12.496Z,69.4
2022-09-30T20:29:12.794Z,69.7
2022-09-30T20:35:02.226Z,69.5
2022-09-30T20:40:02.285Z,69.7
2022-09-30T20:45:12.540Z,69.6
2022-09-30T20:51:02.247Z,70.1
2022-09-30T20:56:02.227Z,70.3
2022-09-30T21:01:12.602Z,69.8
2022-09-30T21:07:02.216Z,70.3
2022-09-30T21:12:14.509Z,70.2
2022-09-30T21:17:21.821Z,70.5
2022-09-30T21:23:02.243Z,70.5
2022-09-30T21:28:03.265Z,69.4
2022-09-30T21:33:12.566Z,70.3
2022-09-30T21:38:12.521Z,71.1
2022-09-30T21:43:12.582Z,70.5
2022-09-30T21:49:02.396Z,69.2
2022-09-30T21:54:02.418Z,69.6
2022-09-30T21:59:02.426Z,67.6
2022-09-30T22:04:03.449Z,69.2
2022-09-30T22:09:12.732Z,69.1
2022-09-30T22:14:12.787Z,69.1
2022-09-30T22:20:02.509Z,68.7
2022-09-30T22:25:12.770Z,68.3
2022-09-30T22:31:02.252Z,68.3
2022-09-30T22:36:02.495Z,68.4
2022-09-30T22:41:12.552Z,68.9
2022-09-30T22:46:12.624Z,68.7
2022-09-30T22:51:12.781Z,69.4
2022-09-30T22:57:02.453Z,68.9
2022-09-30T23:02:12.749Z,68.5
2022-09-30T23:07:12.733Z,69.4
2022-09-30T23:13:02.505Z,69.6
2022-09-30T23:18:12.715Z,69.1
2022-09-30T23:23:12.768Z,68.8
2022-09-30T23:28:17.478Z,69.4
2022-09-30T23:34:02.504Z,69.7
2022-09-30T23:39:12.815Z,70.1
2022-09-30T23:44:12.747Z,69.9
2022-09-30T23:49:12.754Z,69.7
2022-09-30T23:55:02.212Z,71
